Time;durP1;ratioP1;P1;durP2;ratioP2;P2;SDS_P1;SDS_P2;PMS_P1;PMS_P2;Temp;Humidity;BMP_temperature;BMP_pressure;BME280_temperature;BME280_humidity;BME280_pressure;Samples;Min_cycle;Max_cycle;Signal;HPM_P1;HPM_P2
2022/01/10 00:01:44;;;;;;;39.53;12.57;;;;;;;;;;5148521;27;20099;-80
2022/01/10 00:04:11;;;;;;;30.90;11.18;;;;;;;;;;5133144;27;20091;-80
2022/01/10 00:06:37;;;;;;;41.38;11.15;;;;;;;;;;5151150;27;20523;-79
2022/01/10 00:09:04;;;;;;;29.08;10.93;;;;;;;;;;5136208;27;20074;-80
2022/01/10 00:11:30;;;;;;;26.58;10.75;;;;;;;;;;5131001;27;20059;-80
2022/01/10 00:13:57;;;;;;;22.27;9.95;;;;;;;;;;5153795;27;20087;-80
2022/01/10 00:16:23;;;;;;;28.02;10.43;;;;;;;;;;5136431;27;20075;-80
2022/01/10 00:18:50;;;;;;;23.35;9.63;;;;;;;;;;5155086;27;20054;-80
2022/01/10 00:21:16;;;;;;;24.98;9.55;;;;;;;;;;5155039;27;20082;-80
2022/01/10 00:23:42;;;;;;;23.30;9.55;;;;;;;;;;5149189;27;20054;-80
2022/01/10 00:26:09;;;;;;;21.23;9.43;;;;;;;;;;5142367;27;20117;-80
2022/01/10 00:28:35;;;;;;;21.15;10.10;;;;;;;;;;5138238;27;20051;-80
2022/01/10 00:31:01;;;;;;;22.92;9.93;;;;;;;;;;5128032;27;20089;-80
2022/01/10 00:33:28;;;;;;;22.95;10.18;;;;;;;;;;5115012;27;20083;-80
2022/01/10 00:35:54;;;;;;;18.75;8.65;;;;;;;;;;5131911;27;20051;-80
2022/01/10 00:38:21;;;;;;;20.88;9.27;;;;;;;;;;5135279;27;20043;-80
2022/01/10 00:40:49;;;;;;;20.35;8.45;;;;;;;;;;5129737;27;20059;-80
2022/01/10 00:43:30;;;;;;;19.17;8.98;;;;;;;;;;5129323;27;20090;-80
2022/01/10 00:45:56;;;;;;;22.88;9.63;;;;;;;;;;5131347;27;20051;-80
2022/01/10 00:48:23;;;;;;;20.08;9.60;;;;;;;;;;5135062;27;20516;-80
2022/01/10 00:50:49;;;;;;;15.85;8.63;;;;;;;;;;5135040;27;20054;-80
2022/01/10 00:53:16;;;;;;;19.15;9.82;;;;;;;;;;5155250;27;20084;-80
2022/01/10 00:55:42;;;;;;;19.17;10.02;;;;;;;;;;5146951;27;20388;-80
2022/01/10 00:58:08;;;;;;;23.67;11.20;;;;;;;;;;5135761;27;20093;-80
2022/01/10 01:00:35;;;;;;;26.58;11.18;;;;;;;;;;5153552;27;20055;-80
2022/01/10 01:03:02;;;;;;;23.25;9.98;;;;;;;;;;5154594;27;20574;-80
2022/01/10 01:05:30;;;;;;;31.25;11.68;;;;;;;;;;5154523;27;20078;-80
2022/01/10 01:08:00;;;;;;;31.25;11.40;;;;;;;;;;5153624;27;20582;-80
2022/01/10 01:13:04;;;;;;;26.77;10.35;;;;;;;;;;5154106;27;20094;-80
2022/01/10 01:15:33;;;;;;;26.50;11.63;;;;;;;;;;5140140;27;20052;-80
2022/01/10 01:25:51;;;;;;;31.05;12.25;;;;;;;;;;5154082;27;20565;-80
2022/01/10 01:28:17;;;;;;;29.25;12.50;;;;;;;;;;5124014;27;20571;-80
2022/01/10 01:30:44;;;;;;;28.85;13.27;;;;;;;;;;5149511;27;20056;-80
2022/01/10 01:33:13;;;;;;;22.33;11.27;;;;;;;;;;5133160;27;20059;-80
2022/01/10 01:35:39;;;;;;;25.75;12.45;;;;;;;;;;5136735;27;20101;-80
2022/01/10 01:38:07;;;;;;;27.73;12.95;;;;;;;;;;5114702;27;20058;-80
2022/01/10 01:40:39;;;;;;;29.25;13.45;;;;;;;;;;5114181;27;20055;-80
2022/01/10 01:43:05;;;;;;;29.10;12.90;;;;;;;;;;5151225;27;20051;-79
2022/01/10 01:45:50;;;;;;;30.52;12.48;;;;;;;;;;5133067;27;20055;-80
2022/01/10 01:48:17;;;;;;;35.13;13.38;;;;;;;;;;5132280;27;20134;-79
2022/01/10 01:50:43;;;;;;;29.75;12.52;;;;;;;;;;5126195;27;20105;-80
2022/01/10 01:53:10;;;;;;;26.40;11.65;;;;;;;;;;5133354;27;20084;-80
2022/01/10 01:55:37;;;;;;;26.27;12.85;;;;;;;;;;5149653;27;20513;-80
2022/01/10 01:58:03;;;;;;;35.28;14.85;;;;;;;;;;5149794;27;20047;-80
2022/01/10 02:00:29;;;;;;;32.75;12.60;;;;;;;;;;5130629;27;20052;-80
2022/01/10 02:02:56;;;;;;;25.75;12.60;;;;;;;;;;5146193;27;20418;-79
2022/01/10 02:05:22;;;;;;;32.35;12.73;;;;;;;;;;5132024;27;20074;-79
2022/01/10 02:07:49;;;;;;;31.08;12.88;;;;;;;;;;5134226;27;20502;-80
2022/01/10 02:10:16;;;;;;;35.60;13.68;;;;;;;;;;5133387;27;20081;-80
2022/01/10 02:12:43;;;;;;;36.08;13.10;;;;;;;;;;5151447;27;20184;-79
2022/01/10 02:15:21;;;;;;;34.95;14.90;;;;;;;;;;5133708;27;20816;-80
2022/01/10 02:17:49;;;;;;;36.17;15.07;;;;;;;;;;5133024;27;20055;-79
2022/01/10 02:20:15;;;;;;;35.42;14.80;;;;;;;;;;5133742;27;20051;-80
2022/01/10 02:22:41;;;;;;;32.25;14.13;;;;;;;;;;5132228;27;20128;-80
2022/01/10 02:25:08;;;;;;;27.95;12.63;;;;;;;;;;5132223;27;20047;-79
2022/01/10 02:27:34;;;;;;;32.13;12.95;;;;;;;;;;5132201;27;20074;-79
2022/01/10 02:30:00;;;;;;;25.00;12.55;;;;;;;;;;5130490;27;20051;-79
2022/01/10 02:32:27;;;;;;;33.63;12.93;;;;;;;;;;5133903;27;20050;-79
2022/01/10 02:34:53;;;;;;;27.02;12.52;;;;;;;;;;5132486;27;20586;-79
2022/01/10 02:37:33;;;;;;;32.10;13.38;;;;;;;;;;5129498;27;20087;-79
2022/01/10 02:40:03;;;;;;;30.73;14.50;;;;;;;;;;5124130;27;20108;-79
2022/01/10 02:42:29;;;;;;;31.40;13.88;;;;;;;;;;5129423;27;20086;-79
2022/01/10 02:44:56;;;;;;;28.00;12.55;;;;;;;;;;5131632;27;20055;-79
2022/01/10 02:47:22;;;;;;;34.40;15.32;;;;;;;;;;5133763;27;20086;-79
2022/01/10 02:49:48;;;;;;;30.98;14.93;;;;;;;;;;5150756;27;20052;-79
2022/01/10 02:52:15;;;;;;;27.02;13.55;;;;;;;;;;5149391;27;20175;-79
2022/01/10 02:54:42;;;;;;;25.55;13.35;;;;;;;;;;5132162;27;20506;-79
2022/01/10 02:57:09;;;;;;;31.92;14.20;;;;;;;;;;5132096;27;20059;-79
2022/01/10 02:59:37;;;;;;;28.90;13.18;;;;;;;;;;5132218;27;20140;-79
2022/01/10 03:02:03;;;;;;;33.67;14.20;;;;;;;;;;5129997;27;20054;-79
2022/01/10 03:04:30;;;;;;;32.67;14.50;;;;;;;;;;5117692;27;20052;-79
2022/01/10 03:06:58;;;;;;;36.47;15.65;;;;;;;;;;5119933;27;20077;-79
2022/01/10 03:09:24;;;;;;;33.22;14.27;;;;;;;;;;5148568;27;20048;-79
2022/01/10 03:11:51;;;;;;;36.95;15.40;;;;;;;;;;5122933;27;20930;-79
2022/01/10 03:14:18;;;;;;;48.08;16.30;;;;;;;;;;5141951;27;20049;-79
2022/01/10 03:16:44;;;;;;;37.00;15.38;;;;;;;;;;5150895;27;20077;-79
2022/01/10 03:19:10;;;;;;;35.95;15.63;;;;;;;;;;5128499;27;20087;-79
2022/01/10 03:21:37;;;;;;;40.65;17.38;;;;;;;;;;5130396;27;20095;-79
2022/01/10 03:24:03;;;;;;;38.95;16.35;;;;;;;;;;5145330;27;20056;-79
2022/01/10 03:26:31;;;;;;;38.25;16.10;;;;;;;;;;5132581;27;20120;-79
2022/01/10 03:28:57;;;;;;;38.75;16.55;;;;;;;;;;5131474;27;20089;-79
2022/01/10 03:31:24;;;;;;;35.55;16.50;;;;;;;;;;5127131;27;20098;-79
2022/01/10 03:33:51;;;;;;;36.50;15.30;;;;;;;;;;5132560;27;20047;-79
2022/01/10 03:36:17;;;;;;;31.13;14.90;;;;;;;;;;5132238;27;20051;-79
2022/01/10 03:38:44;;;;;;;30.35;15.80;;;;;;;;;;5151257;27;20108;-79
2022/01/10 03:41:10;;;;;;;35.55;15.85;;;;;;;;;;5136462;27;20076;-79
2022/01/10 03:43:36;;;;;;;42.03;15.15;;;;;;;;;;5154083;27;20083;-79
2022/01/10 03:46:03;;;;;;;33.83;15.52;;;;;;;;;;5135424;27;20137;-79
2022/01/10 03:48:29;;;;;;;39.65;15.93;;;;;;;;;;5133494;27;20479;-79
2022/01/10 03:50:57;;;;;;;31.75;15.60;;;;;;;;;;5153841;27;20131;-79
2022/01/10 03:53:23;;;;;;;33.70;16.25;;;;;;;;;;5153751;27;20051;-79
2022/01/10 03:55:50;;;;;;;38.00;16.08;;;;;;;;;;5154370;27;20105;-79
2022/01/10 03:58:16;;;;;;;38.40;16.95;;;;;;;;;;5153985;27;20089;-79
2022/01/10 04:00:42;;;;;;;39.05;16.95;;;;;;;;;;5135441;27;21584;-79
2022/01/10 04:03:09;;;;;;;32.92;16.35;;;;;;;;;;5135535;27;20130;-79
2022/01/10 04:05:36;;;;;;;40.15;17.20;;;;;;;;;;5139206;27;20048;-79
2022/01/10 04:08:02;;;;;;;33.42;15.90;;;;;;;;;;5115529;27;20133;-79
2022/01/10 04:10:29;;;;;;;35.42;16.05;;;;;;;;;;5118363;27;20955;-79
2022/01/10 04:12:56;;;;;;;34.30;15.43;;;;;;;;;;5135521;27;20151;-79
2022/01/10 04:15:22;;;;;;;37.67;18.83;;;;;;;;;;5134284;27;20089;-79
2022/01/10 04:17:56;;;;;;;40.88;18.17;;;;;;;;;;5134822;27;20489;-80
2022/01/10 04:20:23;;;;;;;35.65;17.60;;;;;;;;;;5154138;27;21013;-79
2022/01/10 04:22:49;;;;;;;37.15;17.90;;;;;;;;;;5152784;27;20135;-79
2022/01/10 04:25:16;;;;;;;38.63;17.65;;;;;;;;;;5131245;27;20052;-79
2022/01/10 04:27:42;;;;;;;34.60;16.52;;;;;;;;;;5125602;27;20048;-79
2022/01/10 04:30:08;;;;;;;30.85;16.73;;;;;;;;;;5123286;27;20096;-79
2022/01/10 04:32:35;;;;;;;41.72;18.58;;;;;;;;;;5134956;27;20085;-79
2022/01/10 04:35:01;;;;;;;43.60;18.48;;;;;;;;;;5134114;27;20048;-79
2022/01/10 04:37:28;;;;;;;47.72;19.85;;;;;;;;;;5135061;27;20050;-79
2022/01/10 04:39:54;;;;;;;44.53;18.55;;;;;;;;;;5151874;27;20051;-79
2022/01/10 04:42:20;;;;;;;49.60;20.85;;;;;;;;;;5134605;27;20043;-79
2022/01/10 04:44:49;;;;;;;48.55;20.95;;;;;;;;;;5129814;27;20577;-79
2022/01/10 04:47:15;;;;;;;51.67;20.90;;;;;;;;;;5135109;27;20112;-79
2022/01/10 04:52:29;;;;;;;58.78;23.17;;;;;;;;;;5120218;27;20051;-79
2022/01/10 04:54:55;;;;;;;53.03;23.30;;;;;;;;;;5134964;27;20078;-79
2022/01/10 04:57:22;;;;;;;54.22;23.10;;;;;;;;;;5135460;27;20055;-79
2022/01/10 04:59:49;;;;;;;56.45;24.75;;;;;;;;;;5175109;27;20227;-79
2022/01/10 05:02:15;;;;;;;56.00;23.65;;;;;;;;;;5144870;27;20051;-80
2022/01/10 05:04:42;;;;;;;54.60;24.42;;;;;;;;;;5129948;27;20157;-79
2022/01/10 05:07:08;;;;;;;50.75;23.75;;;;;;;;;;5134132;27;20111;-79
2022/01/10 05:09:35;;;;;;;55.95;25.30;;;;;;;;;;5135367;27;20070;-79
2022/01/10 05:12:01;;;;;;;49.50;24.40;;;;;;;;;;5140863;27;20062;-80
2022/01/10 05:14:28;;;;;;;60.30;26.35;;;;;;;;;;5132046;27;20066;-79
2022/01/10 05:16:54;;;;;;;52.85;24.23;;;;;;;;;;5132439;27;20048;-79
2022/01/10 05:19:20;;;;;;;66.57;27.50;;;;;;;;;;5145091;27;20082;-79
2022/01/10 05:21:47;;;;;;;74.07;26.90;;;;;;;;;;5116888;27;20128;-79
2022/01/10 05:24:13;;;;;;;61.95;26.33;;;;;;;;;;5150463;27;20131;-79
2022/01/10 05:26:39;;;;;;;63.63;26.40;;;;;;;;;;5119616;27;20055;-79
2022/01/10 05:29:06;;;;;;;52.47;24.42;;;;;;;;;;5116382;27;20059;-79
2022/01/10 05:31:35;;;;;;;55.85;25.92;;;;;;;;;;5134660;27;20051;-79
2022/01/10 05:34:02;;;;;;;57.72;26.92;;;;;;;;;;5150728;27;20081;-78
2022/01/10 05:36:28;;;;;;;55.03;25.80;;;;;;;;;;5131872;27;20043;-79
2022/01/10 05:38:56;;;;;;;57.15;25.02;;;;;;;;;;5152096;27;20055;-79
2022/01/10 05:41:22;;;;;;;52.42;25.33;;;;;;;;;;5172084;27;20086;-79
2022/01/10 05:43:49;;;;;;;61.00;26.92;;;;;;;;;;5131540;27;20055;-79
2022/01/10 05:46:16;;;;;;;59.47;25.20;;;;;;;;;;5133470;27;20043;-79
2022/01/10 05:48:47;;;;;;;66.70;26.63;;;;;;;;;;5132670;27;20047;-79
2022/01/10 05:51:13;;;;;;;54.90;24.88;;;;;;;;;;5150320;27;20478;-79
2022/01/10 05:53:40;;;;;;;58.63;25.55;;;;;;;;;;5138412;27;20836;-79
2022/01/10 05:56:06;;;;;;;58.83;25.45;;;;;;;;;;5148837;27;20870;-79
2022/01/10 05:58:33;;;;;;;63.92;26.38;;;;;;;;;;5135664;27;20067;-81
2022/01/10 06:00:59;;;;;;;48.15;24.10;;;;;;;;;;5134343;27;20504;-80
2022/01/10 06:03:26;;;;;;;57.15;24.00;;;;;;;;;;5147202;27;20561;-80
2022/01/10 06:05:52;;;;;;;54.17;23.58;;;;;;;;;;5114216;27;20086;-80
2022/01/10 06:08:19;;;;;;;51.78;23.80;;;;;;;;;;5146843;27;20073;-80
2022/01/10 06:10:45;;;;;;;60.95;25.33;;;;;;;;;;5153297;27;20051;-80
2022/01/10 06:13:11;;;;;;;51.20;24.02;;;;;;;;;;5136224;27;20059;-78
2022/01/10 06:15:38;;;;;;;53.45;23.00;;;;;;;;;;5132335;27;20094;-78
2022/01/10 06:18:04;;;;;;;58.45;24.80;;;;;;;;;;5135315;27;20074;-79
2022/01/10 06:20:31;;;;;;;51.17;23.80;;;;;;;;;;5130678;27;20561;-78
2022/01/10 06:22:57;;;;;;;46.97;23.73;;;;;;;;;;5152871;27;20060;-78
2022/01/10 06:25:24;;;;;;;45.33;22.27;;;;;;;;;;5151895;27;20112;-78
2022/01/10 06:27:51;;;;;;;52.15;23.17;;;;;;;;;;5133983;27;20100;-78
2022/01/10 06:30:17;;;;;;;57.25;24.42;;;;;;;;;;5149933;27;20055;-79
2022/01/10 06:32:44;;;;;;;60.58;25.70;;;;;;;;;;5133600;27;20048;-79
2022/01/10 06:35:11;;;;;;;56.08;24.15;;;;;;;;;;5129168;27;20297;-79
2022/01/10 06:37:37;;;;;;;49.10;23.77;;;;;;;;;;5130192;27;20043;-79
2022/01/10 06:40:05;;;;;;;58.97;23.75;;;;;;;;;;5133822;27;20596;-79
2022/01/10 06:42:32;;;;;;;57.95;25.13;;;;;;;;;;5154175;27;20581;-79
2022/01/10 06:44:58;;;;;;;55.10;24.95;;;;;;;;;;5131985;27;20059;-79
2022/01/10 06:47:24;;;;;;;57.28;25.08;;;;;;;;;;5132979;27;20048;-79
2022/01/10 06:49:51;;;;;;;52.92;24.42;;;;;;;;;;5138073;27;20051;-79
2022/01/10 06:52:17;;;;;;;57.10;24.98;;;;;;;;;;5135749;27;20059;-79
2022/01/10 06:54:44;;;;;;;52.60;24.45;;;;;;;;;;5153098;27;20070;-79
2022/01/10 06:57:10;;;;;;;57.85;23.42;;;;;;;;;;5135994;27;20043;-79
2022/01/10 06:59:36;;;;;;;49.55;23.33;;;;;;;;;;5154133;27;20101;-79
2022/01/10 07:02:03;;;;;;;53.65;22.83;;;;;;;;;;5154589;27;20846;-80
2022/01/10 07:04:30;;;;;;;54.17;23.38;;;;;;;;;;5166204;27;20058;-79
2022/01/10 07:06:57;;;;;;;57.58;25.00;;;;;;;;;;5153908;27;20147;-79
2022/01/10 07:09:23;;;;;;;52.85;24.13;;;;;;;;;;5153695;27;20055;-79
2022/01/10 07:11:49;;;;;;;55.83;24.27;;;;;;;;;;5150598;27;20051;-79
2022/01/10 07:14:17;;;;;;;48.65;24.35;;;;;;;;;;5135345;27;20061;-80
2022/01/10 07:16:44;;;;;;;56.97;25.15;;;;;;;;;;5137612;27;20117;-79
2022/01/10 07:19:10;;;;;;;57.88;24.63;;;;;;;;;;5157771;27;20062;-80
2022/01/10 07:21:40;;;;;;;52.38;23.92;;;;;;;;;;5137431;27;20065;-79
2022/01/10 07:24:07;;;;;;;51.15;25.38;;;;;;;;;;5135831;27;20101;-79
2022/01/10 07:26:33;;;;;;;50.33;24.83;;;;;;;;;;5138327;27;20497;-79
2022/01/10 07:29:00;;;;;;;50.60;23.85;;;;;;;;;;5147903;27;20051;-79
2022/01/10 07:31:27;;;;;;;57.00;23.40;;;;;;;;;;5150608;27;20957;-79
2022/01/10 07:33:54;;;;;;;49.95;22.40;;;;;;;;;;5137147;27;20898;-79
2022/01/10 07:36:22;;;;;;;47.58;22.58;;;;;;;;;;5154363;27;20058;-79
2022/01/10 07:38:48;;;;;;;48.15;22.60;;;;;;;;;;5155053;27;20051;-79
2022/01/10 07:41:15;;;;;;;42.50;21.35;;;;;;;;;;5153879;27;20069;-79
2022/01/10 07:43:41;;;;;;;52.10;23.05;;;;;;;;;;5137529;27;20108;-79
2022/01/10 07:46:08;;;;;;;52.92;22.98;;;;;;;;;;5152021;27;20047;-79
2022/01/10 07:48:35;;;;;;;53.97;24.02;;;;;;;;;;5154353;27;20142;-79
2022/01/10 07:51:08;;;;;;;47.40;22.83;;;;;;;;;;5137190;27;20047;-79
2022/01/10 07:53:36;;;;;;;51.08;21.88;;;;;;;;;;5134772;27;20051;-79
2022/01/10 07:56:03;;;;;;;48.90;20.75;;;;;;;;;;5133926;27;20171;-79
2022/01/10 07:58:29;;;;;;;47.83;21.55;;;;;;;;;;5137346;27;20082;-80
2022/01/10 08:00:56;;;;;;;48.05;21.58;;;;;;;;;;5131926;27;20147;-79
2022/01/10 08:03:23;;;;;;;45.75;21.08;;;;;;;;;;5126765;27;20106;-79
2022/01/10 08:05:49;;;;;;;46.55;21.23;;;;;;;;;;5137146;27;20100;-80
2022/01/10 08:08:15;;;;;;;48.88;22.13;;;;;;;;;;5141476;27;20132;-80
2022/01/10 08:10:42;;;;;;;51.53;21.90;;;;;;;;;;5145295;27;20055;-79
2022/01/10 08:13:08;;;;;;;45.55;21.48;;;;;;;;;;5126435;27;20132;-79
2022/01/10 08:15:35;;;;;;;50.65;21.58;;;;;;;;;;5125201;27;20104;-79
2022/01/10 08:18:01;;;;;;;48.30;21.13;;;;;;;;;;5134632;27;20055;-79
2022/01/10 08:20:28;;;;;;;49.03;22.10;;;;;;;;;;5149026;27;20055;-79
2022/01/10 08:22:54;;;;;;;52.70;22.92;;;;;;;;;;5128148;27;20081;-79
2022/01/10 08:25:20;;;;;;;48.95;22.40;;;;;;;;;;5147502;27;20066;-80
2022/01/10 08:27:47;;;;;;;53.17;22.48;;;;;;;;;;5140359;27;20055;-79
2022/01/10 08:30:13;;;;;;;51.67;23.95;;;;;;;;;;5129816;27;20500;-79
2022/01/10 08:32:40;;;;;;;54.28;23.85;;;;;;;;;;5146712;27;20105;-79
2022/01/10 08:35:07;;;;;;;54.60;23.40;;;;;;;;;;5114712;27;20822;-79
2022/01/10 08:37:34;;;;;;;63.88;25.83;;;;;;;;;;5136530;27;20120;-79
2022/01/10 08:40:00;;;;;;;59.90;25.65;;;;;;;;;;5145205;27;20051;-79
2022/01/10 08:42:26;;;;;;;54.05;24.23;;;;;;;;;;5149380;27;20054;-79
2022/01/10 08:44:53;;;;;;;59.47;24.55;;;;;;;;;;5122623;27;20059;-79
2022/01/10 08:47:20;;;;;;;49.10;24.88;;;;;;;;;;5142451;27;20112;-79
2022/01/10 08:49:47;;;;;;;53.00;24.33;;;;;;;;;;5153281;27;20043;-79
2022/01/10 08:52:14;;;;;;;52.80;23.83;;;;;;;;;;5130096;27;20089;-79
2022/01/10 08:54:41;;;;;;;56.95;27.38;;;;;;;;;;5126505;27;20133;-79
2022/01/10 08:57:07;;;;;;;61.63;27.30;;;;;;;;;;5127919;27;20132;-79
2022/01/10 08:59:33;;;;;;;62.83;26.58;;;;;;;;;;5132571;27;20059;-79
2022/01/10 09:02:00;;;;;;;58.70;25.33;;;;;;;;;;5123406;27;20083;-79
2022/01/10 09:04:27;;;;;;;57.42;27.00;;;;;;;;;;5122230;27;20105;-78
2022/01/10 09:07:00;;;;;;;60.78;26.08;;;;;;;;;;5138666;27;20567;-78
2022/01/10 09:09:27;;;;;;;56.40;27.08;;;;;;;;;;5153908;27;20047;-79
2022/01/10 09:11:53;;;;;;;68.72;27.65;;;;;;;;;;5130114;27;20059;-78
2022/01/10 09:14:20;;;;;;;57.85;26.75;;;;;;;;;;5151780;27;20124;-79
2022/01/10 09:16:47;;;;;;;57.53;28.17;;;;;;;;;;5152714;27;20051;-78
2022/01/10 09:19:13;;;;;;;54.55;27.63;;;;;;;;;;5141449;27;20047;-78
2022/01/10 09:21:40;;;;;;;57.00;27.05;;;;;;;;;;5159122;27;20082;-78
2022/01/10 09:24:06;;;;;;;62.60;28.95;;;;;;;;;;5152353;27;20055;-79
2022/01/10 09:26:33;;;;;;;60.58;26.08;;;;;;;;;;5149701;27;20355;-78
2022/01/10 09:28:59;;;;;;;57.30;27.63;;;;;;;;;;5131645;27;20051;-78
2022/01/10 09:31:26;;;;;;;61.65;27.10;;;;;;;;;;5143684;27;20112;-78
2022/01/10 09:33:55;;;;;;;63.15;28.08;;;;;;;;;;5126728;27;20055;-77
2022/01/10 09:36:23;;;;;;;58.17;28.27;;;;;;;;;;5139163;27;20051;-78
2022/01/10 09:38:49;;;;;;;53.20;26.45;;;;;;;;;;5134104;27;20051;-78
2022/01/10 09:41:15;;;;;;;52.72;26.65;;;;;;;;;;5152683;27;20646;-77
2022/01/10 09:43:47;;;;;;;52.97;26.60;;;;;;;;;;5150714;27;20086;-78
2022/01/10 09:46:15;;;;;;;64.43;28.38;;;;;;;;;;5147971;27;20062;-78
2022/01/10 09:48:42;;;;;;;57.58;27.00;;;;;;;;;;5136017;27;20108;-78
2022/01/10 09:51:23;;;;;;;61.28;26.88;;;;;;;;;;5156677;27;20055;-79
2022/01/10 09:53:49;;;;;;;50.15;24.52;;;;;;;;;;5122983;27;20139;-78
2022/01/10 09:56:16;;;;;;;58.50;26.60;;;;;;;;;;5142744;27;20047;-78
2022/01/10 09:58:45;;;;;;;51.78;26.92;;;;;;;;;;5134081;27;20031;-78
2022/01/10 10:01:12;;;;;;;49.28;26.52;;;;;;;;;;5134138;27;20493;-78
2022/01/10 10:03:42;;;;;;;49.45;25.10;;;;;;;;;;5128502;27;20108;-78
2022/01/10 10:06:09;;;;;;;53.70;25.88;;;;;;;;;;5151661;27;20204;-78
2022/01/10 10:08:37;;;;;;;53.13;26.20;;;;;;;;;;5135717;27;20055;-78
2022/01/10 10:11:05;;;;;;;48.55;26.50;;;;;;;;;;5141390;27;20594;-78
2022/01/10 10:13:35;;;;;;;55.53;26.55;;;;;;;;;;5143465;27;20058;-78
2022/01/10 10:16:04;;;;;;;59.15;28.30;;;;;;;;;;5147022;27;20090;-78
2022/01/10 10:18:31;;;;;;;56.05;24.90;;;;;;;;;;5133611;27;20051;-78
2022/01/10 10:20:57;;;;;;;47.05;25.00;;;;;;;;;;5149802;27;20092;-78
2022/01/10 10:23:23;;;;;;;47.42;25.35;;;;;;;;;;5137611;27;20621;-78
2022/01/10 10:25:53;;;;;;;52.33;25.67;;;;;;;;;;5152536;27;20047;-78
2022/01/10 10:28:20;;;;;;;53.70;25.73;;;;;;;;;;5142069;27;20055;-78
2022/01/10 10:30:47;;;;;;;50.35;24.80;;;;;;;;;;5147062;27;20510;-77
2022/01/10 10:33:15;;;;;;;48.15;24.75;;;;;;;;;;5116197;27;20054;-78
2022/01/10 10:35:42;;;;;;;48.75;22.88;;;;;;;;;;5142889;27;20121;-78
2022/01/10 10:38:09;;;;;;;56.13;25.20;;;;;;;;;;5130193;27;20938;-78
2022/01/10 10:40:42;;;;;;;53.00;24.95;;;;;;;;;;5143834;27;20127;-77
2022/01/10 10:43:09;;;;;;;50.88;23.67;;;;;;;;;;5137108;27;20059;-78
2022/01/10 10:45:35;;;;;;;52.30;23.70;;;;;;;;;;5126482;27;20066;-78
2022/01/10 10:48:07;;;;;;;47.17;23.67;;;;;;;;;;5138516;27;20134;-78
2022/01/10 10:50:45;;;;;;;50.33;24.25;;;;;;;;;;5146481;27;20054;-78
2022/01/10 10:53:13;;;;;;;46.53;24.05;;;;;;;;;;5148403;27;20108;-78
2022/01/10 10:55:41;;;;;;;46.90;22.25;;;;;;;;;;5149267;27;20110;-78
2022/01/10 10:58:08;;;;;;;42.50;23.05;;;;;;;;;;5132524;27;20110;-78
2022/01/10 11:00:35;;;;;;;40.95;20.98;;;;;;;;;;5132536;27;21025;-78
2022/01/10 11:03:02;;;;;;;40.13;23.13;;;;;;;;;;5139734;27;20078;-78
2022/01/10 11:05:29;;;;;;;41.90;22.58;;;;;;;;;;5150646;27;20051;-78
2022/01/10 11:07:56;;;;;;;44.03;21.92;;;;;;;;;;5150922;27;20055;-78
2022/01/10 11:10:24;;;;;;;44.63;23.48;;;;;;;;;;5125918;27;20579;-80
2022/01/10 11:12:58;;;;;;;49.05;21.90;;;;;;;;;;5131754;27;20052;-78
2022/01/10 11:15:25;;;;;;;45.03;22.85;;;;;;;;;;5144697;27;20051;-79
2022/01/10 11:17:59;;;;;;;41.30;22.83;;;;;;;;;;5145492;27;20149;-79
2022/01/10 11:20:29;;;;;;;44.70;22.60;;;;;;;;;;5136440;27;20093;-79
2022/01/10 11:22:57;;;;;;;46.13;22.25;;;;;;;;;;5152459;27;20055;-79
2022/01/10 11:25:25;;;;;;;49.28;22.15;;;;;;;;;;5140094;27;20951;-79
2022/01/10 11:27:53;;;;;;;42.20;20.30;;;;;;;;;;5120860;27;20136;-78
2022/01/10 11:30:38;;;;;;;40.90;21.27;;;;;;;;;;5150992;27;20089;-78
2022/01/10 11:33:15;;;;;;;38.38;21.13;;;;;;;;;;5149922;27;20055;-79
2022/01/10 11:35:52;;;;;;;35.75;21.05;;;;;;;;;;5131135;27;20513;-79
2022/01/10 11:38:37;;;;;;;41.65;21.05;;;;;;;;;;5141607;27;20139;-79
2022/01/10 11:41:04;;;;;;;39.45;20.00;;;;;;;;;;5151078;27;20582;-79
2022/01/10 11:43:43;;;;;;;38.42;18.92;;;;;;;;;;5142925;27;20142;-79
2022/01/10 11:46:14;;;;;;;41.13;18.80;;;;;;;;;;5131550;27;20058;-79
2022/01/10 11:48:46;;;;;;;37.10;19.48;;;;;;;;;;5124822;27;20178;-79
2022/01/10 11:51:20;;;;;;;39.33;19.38;;;;;;;;;;5145359;27;20087;-78
2022/01/10 11:53:48;;;;;;;34.30;19.35;;;;;;;;;;5139794;27;20100;-78
2022/01/10 11:56:33;;;;;;;40.15;19.98;;;;;;;;;;5126554;27;20140;-80
2022/01/10 11:59:07;;;;;;;41.88;19.85;;;;;;;;;;5127598;27;20052;-79
2022/01/10 12:01:34;;;;;;;35.63;18.38;;;;;;;;;;5147723;27;20105;-79
2022/01/10 12:04:01;;;;;;;34.65;19.33;;;;;;;;;;5129158;27;20055;-79
2022/01/10 12:06:28;;;;;;;41.42;18.38;;;;;;;;;;5151937;27;20051;-79
2022/01/10 12:08:55;;;;;;;30.33;17.08;;;;;;;;;;5134184;27;20090;-79
2022/01/10 12:11:26;;;;;;;35.65;17.27;;;;;;;;;;5132452;27;20490;-79
2022/01/10 12:13:53;;;;;;;36.03;16.98;;;;;;;;;;5123794;27;21611;-79
2022/01/10 12:16:20;;;;;;;34.78;17.00;;;;;;;;;;5132231;27;20085;-80
2022/01/10 12:18:46;;;;;;;32.13;15.13;;;;;;;;;;5128586;27;20625;-80
2022/01/10 12:21:16;;;;;;;25.10;14.38;;;;;;;;;;5136667;27;20060;-79
2022/01/10 12:23:43;;;;;;;30.15;15.90;;;;;;;;;;5135264;27;20104;-79
2022/01/10 12:26:10;;;;;;;28.75;15.88;;;;;;;;;;5132947;27;20048;-79
2022/01/10 12:28:37;;;;;;;31.85;17.27;;;;;;;;;;5154135;27;20054;-79
2022/01/10 12:31:04;;;;;;;29.70;15.30;;;;;;;;;;5155740;27;20065;-79
2022/01/10 12:33:31;;;;;;;28.48;15.88;;;;;;;;;;5135291;27;20135;-79
2022/01/10 12:35:58;;;;;;;30.85;14.63;;;;;;;;;;5148515;27;20062;-79
2022/01/10 12:38:24;;;;;;;35.20;15.10;;;;;;;;;;5156571;27;20047;-79
2022/01/10 12:40:51;;;;;;;31.33;15.90;;;;;;;;;;5137932;27;20112;-79
2022/01/10 12:43:17;;;;;;;35.97;15.93;;;;;;;;;;5155235;27;20104;-79
2022/01/10 12:45:45;;;;;;;32.65;16.23;;;;;;;;;;5137049;27;20051;-79
2022/01/10 12:48:14;;;;;;;31.45;15.77;;;;;;;;;;5150098;27;20178;-79
2022/01/10 12:50:41;;;;;;;33.85;16.45;;;;;;;;;;5151470;27;20073;-79
2022/01/10 12:53:08;;;;;;;31.52;15.63;;;;;;;;;;5137395;27;20138;-79
2022/01/10 12:55:34;;;;;;;30.83;15.18;;;;;;;;;;5127483;27;20927;-79
2022/01/10 12:58:00;;;;;;;34.13;15.57;;;;;;;;;;5143324;27;20052;-79
2022/01/10 13:00:27;;;;;;;30.98;14.13;;;;;;;;;;5156185;27;20050;-80
2022/01/10 13:02:53;;;;;;;30.73;15.80;;;;;;;;;;5148908;27;20063;-79
2022/01/10 13:05:21;;;;;;;31.58;14.82;;;;;;;;;;5155012;27;20055;-79
2022/01/10 13:07:48;;;;;;;30.13;14.85;;;;;;;;;;5120173;27;20051;-79
2022/01/10 13:10:22;;;;;;;32.08;16.75;;;;;;;;;;5136198;27;20051;-79
2022/01/10 13:12:54;;;;;;;29.55;16.90;;;;;;;;;;5128368;27;20055;-80
2022/01/10 13:15:21;;;;;;;32.28;15.70;;;;;;;;;;5130924;27;20096;-79
2022/01/10 13:18:05;;;;;;;28.52;13.18;;;;;;;;;;5149016;27;20124;-79
2022/01/10 13:20:33;;;;;;;26.92;13.35;;;;;;;;;;5155013;27;20047;-79
2022/01/10 13:23:04;;;;;;;26.65;13.05;;;;;;;;;;5136184;27;20043;-79
2022/01/10 13:25:37;;;;;;;28.42;12.07;;;;;;;;;;5141651;27;20051;-79
2022/01/10 13:28:07;;;;;;;27.95;13.23;;;;;;;;;;5136375;27;20051;-80
2022/01/10 13:30:34;;;;;;;27.75;12.73;;;;;;;;;;5128763;27;20139;-79
2022/01/10 13:33:04;;;;;;;28.88;13.18;;;;;;;;;;5119048;27;20054;-79
2022/01/10 13:35:31;;;;;;;27.70;13.10;;;;;;;;;;5127313;27;20060;-79
2022/01/10 13:38:06;;;;;;;30.67;12.93;;;;;;;;;;5154500;27;20058;-79
2022/01/10 13:40:45;;;;;;;30.40;13.77;;;;;;;;;;5139381;27;20077;-79
2022/01/10 13:43:13;;;;;;;42.05;15.55;;;;;;;;;;5115753;27;20959;-79
2022/01/10 13:45:51;;;;;;;30.73;13.68;;;;;;;;;;5149326;27;20059;-79
2022/01/10 13:48:19;;;;;;;32.80;16.27;;;;;;;;;;5141638;27;20196;-79
2022/01/10 13:50:55;;;;;;;41.28;17.25;;;;;;;;;;5145397;27;20055;-80
2022/01/10 13:53:27;;;;;;;29.45;15.20;;;;;;;;;;5150857;27;20055;-79
2022/01/10 13:56:09;;;;;;;31.63;14.95;;;;;;;;;;5152587;27;20504;-79
2022/01/10 13:58:38;;;;;;;33.35;16.20;;;;;;;;;;5138947;27;21009;-80
2022/01/10 14:01:10;;;;;;;32.88;15.43;;;;;;;;;;5118379;27;20102;-80
2022/01/10 14:03:37;;;;;;;32.03;14.95;;;;;;;;;;5119347;27;20054;-80
2022/01/10 14:06:11;;;;;;;32.05;14.65;;;;;;;;;;5128594;27;21005;-80
2022/01/10 14:08:44;;;;;;;29.98;15.82;;;;;;;;;;5127975;27;20052;-79
2022/01/10 14:11:13;;;;;;;37.72;16.80;;;;;;;;;;5130011;27;20051;-80
2022/01/10 14:13:41;;;;;;;31.42;16.35;;;;;;;;;;5130042;27;20055;-80
2022/01/10 14:16:08;;;;;;;33.38;16.63;;;;;;;;;;5151669;27;20043;-80
2022/01/10 14:18:34;;;;;;;33.67;17.48;;;;;;;;;;5135630;27;20168;-80
2022/01/10 14:21:01;;;;;;;31.90;16.58;;;;;;;;;;5136201;27;20083;-80
2022/01/10 14:23:28;;;;;;;37.75;17.05;;;;;;;;;;5132823;27;20086;-79
2022/01/10 14:25:55;;;;;;;35.00;17.55;;;;;;;;;;5131706;27;20055;-80
2022/01/10 14:28:22;;;;;;;41.15;18.30;;;;;;;;;;5132291;27;20143;-80
2022/01/10 14:30:50;;;;;;;32.67;17.67;;;;;;;;;;5115985;27;20528;-80
2022/01/10 14:33:17;;;;;;;32.08;18.10;;;;;;;;;;5114089;27;20093;-80
2022/01/10 14:35:43;;;;;;;34.13;16.95;;;;;;;;;;5136397;27;20105;-79